Boulogne, France

3:03 AM CET on December 09, 2016 (GMT +0100)
Rue Ferdinand Buisson | | Change Station

Elev 22 ft 50.72 °N, 1.61 °E | Updated 5 minutes ago

Overcast
Overcast
49.8 °F
Feels Like 50 °F
N
0.6
Wind Variable Wind from East
Gusts 5.0 mph

Today
High -- | Low -- °F
--% Chance of Precip.
Yesterday
High -- | Low -- °F
Precip. -- in
Pressure 30.39 in
Visibility 6.2 miles
Clouds Overcast 1300 ft
Windchill 50 °F
Dew Point 47 °F
Humidity 90%
Rainfall 0.00 in
Snow Depth Not available.
8:43 AM 4:48 PM
Waxing Gibbous, 69% visible
METAR LFAT 090130Z AUTO 16003KT 130V190 9999 OVC013 09/08 Q1029
Pressure 30.39 in
Visibility 6.2 miles
Clouds Overcast 1300 ft
Windchill 50 °F
Dew Point 47 °F
Humidity 90%
Rainfall 0.00 in
Snow Depth Not available.
8:43 AM 4:48 PM
Waxing Gibbous, 69% visible
METAR LFAT 090130Z AUTO 16003KT 130V190 9999 OVC013 09/08 Q1029

10-Day Weather Forecast

×

Almanac

Astronomy

Dec. 09, 2016 Rise Set
Actual Time
Civil Twilight
Nautical Twilight
Astronomical Twilight
Moon
Length of Visible Light
Length of Day
Tomorrow will be .
, % of the Moon is Illuminated

Today's Extremes

Country Highs Country Lows

Community

WunderPhotos

Upload Photos

1,956,351 photos uploaded!

WunderBlog® & News

Nearby

Air Quality

  Air Quality AQ Index Pollutant
Not available.

Snow Depth

Station Depth Elevation

Earthquake Activity

City Distance Mag. Time & Date
Minimum magnitude displayed is 2.5.

Coastal Water Temperatures

Place Temperature

Stations

Nearby Weather Stations

Station Location Temp. Windchill Dew Point Humidity Wind Precip. Elev Updated Type